TimeCST,TemperatureF,Dew PointF,Humidity,Sea Level PressureIn,VisibilityMPH,Wind Direction,Wind SpeedMPH,Gust SpeedMPH,PrecipitationIn,Events,Conditions,WindDirDegrees,DateUTC
12:53 AM,25.0,17.1,72,30.40,8.0,Calm,Calm,-,N/A,,Clear,0,2012-12-30 06:53:00
1:53 AM,24.1,17.1,75,30.41,8.0,Calm,Calm,-,N/A,,Clear,0,2012-12-30 07:53:00
2:53 AM,19.9,16.0,85,30.43,7.0,Calm,Calm,-,N/A,,Clear,0,2012-12-30 08:53:00
3:53 AM,21.0,16.0,81,30.44,7.0,Calm,Calm,-,N/A,,Clear,0,2012-12-30 09:53:00
4:53 AM,19.0,16.0,88,30.44,7.0,SW,3.5,-,N/A,,Clear,220,2012-12-30 10:53:00
5:53 AM,21.0,15.1,78,30.45,7.0,Calm,Calm,-,N/A,,Clear,0,2012-12-30 11:53:00
6:53 AM,19.0,15.1,85,30.46,7.0,Calm,Calm,-,N/A,,Clear,0,2012-12-30 12:53:00
7:53 AM,21.9,17.1,82,30.46,6.0,South,3.5,-,N/A,,Haze,170,2012-12-30 13:53:00
8:53 AM,27.0,19.9,75,30.45,7.0,SSE,4.6,-,N/A,,Clear,160,2012-12-30 14:53:00
9:53 AM,30.9,21.0,67,30.47,8.0,South,4.6,-,N/A,,Clear,170,2012-12-30 15:53:00
10:53 AM,35.1,21.0,57,30.48,9.0,South,6.9,-,N/A,,Clear,190,2012-12-30 16:53:00
11:53 AM,39.9,19.9,45,30.42,10.0,SE,10.4,-,N/A,,Clear,140,2012-12-30 17:53:00
12:53 PM,42.1,18.0,38,30.39,10.0,South,9.2,-,N/A,,Clear,190,2012-12-30 18:53:00
1:53 PM,43.0,17.1,35,30.36,10.0,SSW,6.9,-,N/A,,Clear,200,2012-12-30 19:53:00
2:53 PM,42.1,16.0,35,30.37,10.0,South,10.4,-,N/A,,Clear,190,2012-12-30 20:53:00
3:53 PM,41.0,16.0,36,30.36,10.0,South,6.9,-,N/A,,Clear,170,2012-12-30 21:53:00
4:53 PM,37.9,17.1,43,30.35,10.0,South,6.9,-,N/A,,Clear,170,2012-12-30 22:53:00
5:53 PM,35.1,18.0,50,30.35,10.0,South,5.8,-,N/A,,Clear,170,2012-12-30 23:53:00
6:53 PM,34.0,18.0,52,30.34,10.0,SE,3.5,-,N/A,,Clear,140,2012-12-31 00:53:00
7:53 PM,33.1,19.0,56,30.32,10.0,SSE,4.6,-,N/A,,Clear,150,2012-12-31 01:53:00
8:53 PM,33.1,19.9,59,30.31,10.0,SSE,4.6,-,N/A,,Clear,150,2012-12-31 02:53:00
9:53 PM,33.1,19.9,59,30.30,10.0,South,4.6,-,N/A,,Clear,170,2012-12-31 03:53:00
10:53 PM,33.1,21.0,61,30.29,10.0,South,5.8,-,N/A,,Clear,170,2012-12-31 04:53:00
11:53 PM,33.1,21.9,64,30.27,9.0,South,5.8,-,N/A,,Clear,180,2012-12-31 05:53:00